Time;durP1;ratioP1;P1;durP2;ratioP2;P2;SDS_P1;SDS_P2;PMS_P1;PMS_P2;Temp;Humidity;BMP_temperature;BMP_pressure;BME280_temperature;BME280_humidity;BME280_pressure;Samples;Min_cycle;Max_cycle;Signal;HPM_P1;HPM_P2
2023/03/17 00:00:50;;;;;;;6.73;2.03;;;;;;;;;;5099608;28;20443;-71
2023/03/17 00:03:19;;;;;;;4.03;2.40;;;;;;;;;;5100248;28;20459;-72
2023/03/17 00:05:47;;;;;;;3.77;2.13;;;;;;;;;;5099581;28;20718;-72
2023/03/17 00:08:18;;;;;;;5.87;2.50;;;;;;;;;;5099564;28;20548;-72
2023/03/17 00:10:46;;;;;;;4.90;3.20;;;;;;;;;;5100606;28;20456;-72
2023/03/17 00:13:14;;;;;;;3.50;2.20;;;;;;;;;;5100920;28;20455;-73
2023/03/17 00:15:42;;;;;;;8.30;2.40;;;;;;;;;;5099414;28;20456;-72
2023/03/17 00:18:15;;;;;;;4.17;2.13;;;;;;;;;;5100200;28;20455;-73
2023/03/17 00:20:42;;;;;;;10.43;2.20;;;;;;;;;;5099328;28;20459;-72
2023/03/17 00:23:13;;;;;;;3.50;2.20;;;;;;;;;;5099060;28;20521;-72
2023/03/17 00:25:42;;;;;;;4.77;3.60;;;;;;;;;;5099429;28;20487;-72
2023/03/17 00:28:14;;;;;;;3.53;2.27;;;;;;;;;;5098667;28;20456;-72
2023/03/17 00:30:41;;;;;;;4.43;2.20;;;;;;;;;;5099884;28;20455;-72
2023/03/17 00:33:11;;;;;;;3.47;2.40;;;;;;;;;;5099363;28;20452;-72
2023/03/17 00:35:40;;;;;;;4.37;2.43;;;;;;;;;;5107463;28;20555;-72
2023/03/17 00:38:12;;;;;;;3.60;1.90;;;;;;;;;;5111628;28;20454;-72
2023/03/17 00:40:39;;;;;;;7.23;2.40;;;;;;;;;;5119685;28;20454;-72
2023/03/17 00:43:08;;;;;;;5.40;2.07;;;;;;;;;;5120283;28;20466;-72
2023/03/17 00:45:36;;;;;;;3.33;2.40;;;;;;;;;;5119340;28;20515;-73
2023/03/17 00:48:03;;;;;;;5.47;2.70;;;;;;;;;;5109070;28;20459;-72
2023/03/17 00:50:31;;;;;;;5.40;2.63;;;;;;;;;;5099257;28;20483;-72
2023/03/17 00:53:01;;;;;;;3.10;2.00;;;;;;;;;;5099023;28;20852;-72
2023/03/17 00:55:28;;;;;;;3.43;2.10;;;;;;;;;;5098256;28;20485;-72
2023/03/17 00:57:56;;;;;;;6.93;2.93;;;;;;;;;;5099429;28;20529;-72
2023/03/17 01:00:26;;;;;;;4.63;2.83;;;;;;;;;;5098849;28;20470;-72
2023/03/17 01:02:54;;;;;;;4.83;2.67;;;;;;;;;;5098570;28;20463;-72
2023/03/17 01:05:23;;;;;;;3.90;2.10;;;;;;;;;;5099959;28;20455;-72
2023/03/17 01:07:52;;;;;;;5.80;2.80;;;;;;;;;;5098056;28;20553;-72
2023/03/17 01:10:22;;;;;;;6.90;2.83;;;;;;;;;;5099885;28;20487;-72
2023/03/17 01:12:51;;;;;;;7.73;2.90;;;;;;;;;;5098311;28;20456;-72
2023/03/17 01:15:20;;;;;;;4.50;2.83;;;;;;;;;;5099509;28;20482;-72
2023/03/17 01:17:49;;;;;;;4.13;2.47;;;;;;;;;;5099980;28;20448;-72
2023/03/17 01:20:17;;;;;;;3.87;2.20;;;;;;;;;;5098069;28;20448;-72
2023/03/17 01:22:45;;;;;;;4.50;2.80;;;;;;;;;;5098777;28;20466;-72
2023/03/17 01:25:13;;;;;;;3.10;2.17;;;;;;;;;;5098334;28;20538;-72
2023/03/17 01:27:43;;;;;;;5.37;3.10;;;;;;;;;;5098213;28;20460;-72
2023/03/17 01:30:20;;;;;;;4.37;2.37;;;;;;;;;;5097975;28;20487;-72
2023/03/17 01:32:48;;;;;;;8.23;2.37;;;;;;;;;;5098366;28;20451;-72
2023/03/17 01:35:16;;;;;;;4.67;2.43;;;;;;;;;;5098661;28;20460;-73
2023/03/17 01:37:44;;;;;;;4.70;2.43;;;;;;;;;;5098547;28;20734;-72
2023/03/17 01:40:14;;;;;;;5.27;2.33;;;;;;;;;;5098370;28;20444;-72
2023/03/17 01:42:46;;;;;;;4.40;2.47;;;;;;;;;;5098929;28;20487;-72
2023/03/17 01:45:29;;;;;;;9.73;2.60;;;;;;;;;;5098674;28;20451;-72
2023/03/17 01:47:56;;;;;;;4.27;2.30;;;;;;;;;;5098345;28;20447;-72
2023/03/17 01:50:24;;;;;;;5.10;2.50;;;;;;;;;;5098479;28;21024;-72
2023/03/17 01:52:52;;;;;;;3.80;1.87;;;;;;;;;;5097205;28;20456;-72
2023/03/17 01:55:20;;;;;;;4.50;3.13;;;;;;;;;;5098386;28;20444;-72
2023/03/17 01:57:52;;;;;;;5.20;2.60;;;;;;;;;;5097938;28;20481;-72
2023/03/17 02:00:22;;;;;;;5.23;2.60;;;;;;;;;;5097765;28;20747;-71
2023/03/17 02:02:50;;;;;;;4.00;2.63;;;;;;;;;;5098227;28;20455;-72
2023/03/17 02:05:19;;;;;;;3.73;2.23;;;;;;;;;;5097279;28;20917;-72
2023/03/17 02:07:46;;;;;;;3.70;1.87;;;;;;;;;;5098140;28;20459;-73
2023/03/17 02:10:14;;;;;;;5.30;2.73;;;;;;;;;;5101890;28;20552;-72
2023/03/17 02:12:43;;;;;;;3.67;2.10;;;;;;;;;;5100923;28;20468;-73
2023/03/17 02:15:13;;;;;;;4.30;2.37;;;;;;;;;;5101620;28;20746;-72
2023/03/17 02:17:41;;;;;;;4.23;2.70;;;;;;;;;;5101942;28;20456;-72
2023/03/17 02:20:26;;;;;;;3.43;2.00;;;;;;;;;;5101760;28;20512;-72
2023/03/17 02:22:56;;;;;;;5.13;3.00;;;;;;;;;;5062272;28;20463;-72
2023/03/17 02:25:24;;;;;;;4.20;2.13;;;;;;;;;;5101123;28;20547;-72
2023/03/17 02:27:53;;;;;;;7.50;2.90;;;;;;;;;;5101606;28;20513;-72
2023/03/17 02:30:22;;;;;;;6.00;2.37;;;;;;;;;;5102426;28;20562;-72
2023/03/17 02:32:50;;;;;;;3.83;2.27;;;;;;;;;;5101016;28;20456;-70
2023/03/17 02:35:19;;;;;;;5.83;2.93;;;;;;;;;;5101612;28;20531;-72
2023/03/17 02:37:48;;;;;;;5.90;3.07;;;;;;;;;;5101007;28;20463;-73
2023/03/17 02:40:17;;;;;;;6.47;2.97;;;;;;;;;;5101675;28;20466;-72
2023/03/17 02:42:45;;;;;;;4.33;2.33;;;;;;;;;;5101316;28;20457;-72
2023/03/17 02:45:14;;;;;;;5.07;2.50;;;;;;;;;;5114288;28;20455;-72
2023/03/17 02:47:41;;;;;;;6.00;2.60;;;;;;;;;;5121814;28;20455;-72
2023/03/17 02:50:10;;;;;;;6.47;2.87;;;;;;;;;;5122761;28;20501;-72
2023/03/17 02:52:38;;;;;;;3.10;2.20;;;;;;;;;;5121708;28;20738;-72
2023/03/17 02:55:07;;;;;;;5.30;3.03;;;;;;;;;;5122285;28;20535;-72
2023/03/17 02:57:36;;;;;;;4.57;3.37;;;;;;;;;;5122546;28;20446;-72
2023/03/17 03:00:09;;;;;;;4.63;3.17;;;;;;;;;;5121944;28;20484;-72
2023/03/17 03:02:36;;;;;;;8.97;3.50;;;;;;;;;;5109613;28;20539;-72
2023/03/17 03:05:05;;;;;;;5.50;2.47;;;;;;;;;;5100892;28;20459;-72
2023/03/17 03:07:33;;;;;;;5.60;3.10;;;;;;;;;;5101481;28;20475;-72
2023/03/17 03:10:01;;;;;;;6.40;2.80;;;;;;;;;;5101607;28;20487;-72
2023/03/17 03:12:28;;;;;;;4.67;2.80;;;;;;;;;;5109334;28;20450;-72
2023/03/17 03:15:00;;;;;;;3.83;2.77;;;;;;;;;;5113106;28;20890;-72
2023/03/17 03:17:28;;;;;;;3.93;2.47;;;;;;;;;;5100266;28;20448;-72
2023/03/17 03:19:58;;;;;;;5.17;2.77;;;;;;;;;;5100747;28;20462;-71
2023/03/17 03:22:26;;;;;;;4.90;2.73;;;;;;;;;;5101126;28;20531;-72
2023/03/17 03:24:53;;;;;;;5.37;2.83;;;;;;;;;;5109124;28;20878;-72
2023/03/17 03:27:21;;;;;;;3.93;2.57;;;;;;;;;;5100233;28;20509;-71
2023/03/17 03:29:50;;;;;;;6.00;3.20;;;;;;;;;;5100681;28;20495;-72
2023/03/17 03:32:19;;;;;;;4.83;3.43;;;;;;;;;;5100557;28;20483;-72
2023/03/17 03:34:46;;;;;;;9.10;3.27;;;;;;;;;;5100850;28;20565;-72
2023/03/17 03:37:15;;;;;;;8.57;3.23;;;;;;;;;;5100471;28;20521;-72
2023/03/17 03:39:43;;;;;;;5.50;3.37;;;;;;;;;;5099739;28;20452;-71
2023/03/17 03:42:11;;;;;;;4.00;2.63;;;;;;;;;;5112961;28;20447;-72
2023/03/17 03:44:39;;;;;;;8.93;2.90;;;;;;;;;;5120409;28;20739;-72
2023/03/17 03:47:07;;;;;;;5.37;3.20;;;;;;;;;;5121366;28;20455;-71
2023/03/17 03:49:36;;;;;;;6.60;2.70;;;;;;;;;;5120910;28;20914;-72
2023/03/17 03:52:04;;;;;;;9.63;3.40;;;;;;;;;;5120450;28;20427;-73
2023/03/17 03:54:31;;;;;;;4.83;3.17;;;;;;;;;;5120459;28;20713;-73
2023/03/17 03:56:59;;;;;;;7.40;3.10;;;;;;;;;;5112045;28;20454;-72
2023/03/17 03:59:35;;;;;;;5.87;3.13;;;;;;;;;;5100716;28;20463;-72
2023/03/17 04:02:03;;;;;;;4.50;2.87;;;;;;;;;;5101417;28;20439;-72
2023/03/17 04:04:31;;;;;;;5.17;3.03;;;;;;;;;;5099080;28;20470;-72
2023/03/17 04:07:01;;;;;;;5.73;3.00;;;;;;;;;;5099885;28;20467;-72
2023/03/17 04:09:28;;;;;;;4.80;2.77;;;;;;;;;;5099739;28;20558;-72
2023/03/17 04:11:56;;;;;;;4.43;2.60;;;;;;;;;;5099362;28;20488;-72
2023/03/17 04:14:24;;;;;;;5.20;2.80;;;;;;;;;;5099520;28;20875;-72
2023/03/17 04:16:51;;;;;;;4.90;3.03;;;;;;;;;;5108270;28;20462;-72
2023/03/17 04:19:22;;;;;;;6.60;3.63;;;;;;;;;;5120512;28;20451;-72
2023/03/17 04:21:50;;;;;;;5.83;3.37;;;;;;;;;;5120689;28;20819;-72
2023/03/17 04:24:20;;;;;;;5.77;3.70;;;;;;;;;;5120206;28;20771;-73
2023/03/17 04:26:47;;;;;;;6.60;3.10;;;;;;;;;;5120780;28;20453;-72
2023/03/17 04:29:15;;;;;;;5.40;3.47;;;;;;;;;;5119403;28;20451;-72
2023/03/17 04:31:43;;;;;;;4.60;3.10;;;;;;;;;;5118955;28;20453;-72
2023/03/17 04:34:14;;;;;;;5.80;3.07;;;;;;;;;;5118761;28;20486;-72
2023/03/17 04:36:42;;;;;;;8.53;3.37;;;;;;;;;;5118699;28;20545;-72
2023/03/17 04:39:10;;;;;;;7.07;3.57;;;;;;;;;;5077278;28;20543;-72
2023/03/17 04:41:39;;;;;;;7.17;3.90;;;;;;;;;;5078473;28;20460;-72
2023/03/17 04:44:09;;;;;;;5.77;2.90;;;;;;;;;;5078067;28;20558;-72
2023/03/17 04:46:37;;;;;;;5.73;3.67;;;;;;;;;;5078176;28;20460;-72
2023/03/17 04:49:07;;;;;;;3.63;2.60;;;;;;;;;;5078108;28;20713;-72
2023/03/17 04:51:39;;;;;;;7.63;3.67;;;;;;;;;;5077722;28;20908;-72
2023/03/17 04:54:15;;;;;;;4.30;2.77;;;;;;;;;;5078580;28;20456;-72
2023/03/17 04:56:45;;;;;;;6.77;4.30;;;;;;;;;;5078548;28;20452;-72
2023/03/17 04:59:12;;;;;;;5.67;3.27;;;;;;;;;;5077618;28;20767;-72
2023/03/17 05:01:40;;;;;;;5.60;3.50;;;;;;;;;;5106647;28;20998;-72
2023/03/17 05:04:11;;;;;;;6.43;3.60;;;;;;;;;;5115758;28;20494;-72
2023/03/17 05:06:40;;;;;;;6.50;3.60;;;;;;;;;;5119442;28;20485;-72
2023/03/17 05:09:09;;;;;;;5.90;3.30;;;;;;;;;;5119076;28;20454;-72
2023/03/17 05:11:37;;;;;;;7.63;3.17;;;;;;;;;;5117474;28;20492;-72
2023/03/17 05:14:06;;;;;;;5.53;2.90;;;;;;;;;;5118249;28;20520;-72
2023/03/17 05:16:34;;;;;;;5.50;3.53;;;;;;;;;;5116930;28;20447;-73
2023/03/17 05:19:02;;;;;;;4.93;3.23;;;;;;;;;;5117955;28;20438;-72
2023/03/17 05:21:30;;;;;;;9.33;4.07;;;;;;;;;;5115085;28;20452;-72
2023/03/17 05:23:58;;;;;;;6.93;3.90;;;;;;;;;;5116899;28;20454;-72
2023/03/17 05:26:26;;;;;;;5.83;3.50;;;;;;;;;;5115964;28;20462;-72
2023/03/17 05:28:53;;;;;;;5.53;3.70;;;;;;;;;;5116826;28;20447;-72
2023/03/17 05:31:23;;;;;;;7.20;3.97;;;;;;;;;;5105493;28;20557;-72
2023/03/17 05:33:51;;;;;;;5.53;3.33;;;;;;;;;;5117707;28;20466;-72
2023/03/17 05:36:21;;;;;;;6.47;4.27;;;;;;;;;;5117414;28;20447;-72
2023/03/17 05:38:49;;;;;;;11.17;4.40;;;;;;;;;;5100695;28;20701;-71
2023/03/17 05:41:21;;;;;;;5.30;3.57;;;;;;;;;;5096946;28;20439;-72
2023/03/17 05:43:50;;;;;;;4.80;3.23;;;;;;;;;;5095174;28;20634;-72
2023/03/17 05:46:19;;;;;;;5.13;3.40;;;;;;;;;;5096710;28;20455;-72
2023/03/17 05:48:50;;;;;;;7.70;4.23;;;;;;;;;;5094268;28;20478;-72
2023/03/17 05:51:18;;;;;;;7.40;4.03;;;;;;;;;;5094842;28;20545;-72
2023/03/17 05:53:45;;;;;;;7.30;4.13;;;;;;;;;;5095483;28;20456;-72
2023/03/17 05:56:15;;;;;;;5.40;3.97;;;;;;;;;;5093433;28;20903;-72
2023/03/17 05:58:43;;;;;;;8.93;3.40;;;;;;;;;;5095385;28;20459;-72
2023/03/17 06:01:13;;;;;;;6.93;3.57;;;;;;;;;;5097126;28;20454;-72
2023/03/17 06:03:43;;;;;;;4.73;2.80;;;;;;;;;;5090205;28;20487;-72
2023/03/17 06:06:12;;;;;;;5.17;3.27;;;;;;;;;;5095273;28;20538;-71
2023/03/17 06:08:40;;;;;;;6.20;3.40;;;;;;;;;;5114248;28;20523;-71
2023/03/17 06:11:08;;;;;;;4.93;3.23;;;;;;;;;;5115159;28;20486;-71
2023/03/17 06:13:35;;;;;;;5.93;4.00;;;;;;;;;;5115972;28;20450;-71
2023/03/17 06:16:04;;;;;;;6.90;3.50;;;;;;;;;;5115563;28;20457;-72
2023/03/17 06:18:31;;;;;;;6.80;4.10;;;;;;;;;;5114286;28;20518;-72
2023/03/17 06:20:59;;;;;;;6.53;2.97;;;;;;;;;;5116037;28;20843;-72
2023/03/17 06:23:28;;;;;;;5.53;3.23;;;;;;;;;;5115120;28;20446;-73
2023/03/17 06:25:56;;;;;;;6.07;3.23;;;;;;;;;;5115997;28;20446;-72
2023/03/17 06:28:23;;;;;;;7.23;3.13;;;;;;;;;;5115625;28;20447;-72
2023/03/17 06:30:53;;;;;;;7.80;3.40;;;;;;;;;;5115693;28;21082;-72
2023/03/17 06:33:22;;;;;;;5.80;3.60;;;;;;;;;;5102378;28;20464;-72
2023/03/17 06:35:50;;;;;;;6.17;3.50;;;;;;;;;;5093883;28;20594;-72
2023/03/17 06:38:19;;;;;;;6.93;3.87;;;;;;;;;;5092560;28;20494;-72
2023/03/17 06:40:48;;;;;;;5.57;3.67;;;;;;;;;;5094548;28;20455;-72
2023/03/17 06:43:18;;;;;;;8.60;4.50;;;;;;;;;;5092334;28;20466;-72
2023/03/17 06:45:48;;;;;;;6.90;3.83;;;;;;;;;;5093723;28;20673;-72
2023/03/17 06:48:16;;;;;;;6.20;3.20;;;;;;;;;;5096056;28;20961;-72
2023/03/17 06:50:47;;;;;;;5.17;3.17;;;;;;;;;;5092590;28;20591;-72
2023/03/17 06:53:15;;;;;;;5.73;3.83;;;;;;;;;;5094036;28;20538;-74
2023/03/17 06:55:45;;;;;;;5.00;3.30;;;;;;;;;;5100427;28;20454;-71
2023/03/17 06:58:15;;;;;;;7.80;3.70;;;;;;;;;;5096413;28;20442;-72
2023/03/17 07:00:44;;;;;;;8.87;4.50;;;;;;;;;;5096808;28;20451;-73
2023/03/17 07:03:12;;;;;;;5.50;3.50;;;;;;;;;;5096299;28;20817;-72
2023/03/17 07:05:40;;;;;;;9.50;4.47;;;;;;;;;;5097074;28;20463;-72
2023/03/17 07:08:11;;;;;;;6.30;4.67;;;;;;;;;;5098346;28;20444;-72
2023/03/17 07:10:39;;;;;;;5.33;3.73;;;;;;;;;;5096732;28;20497;-72
2023/03/17 07:13:07;;;;;;;6.10;3.67;;;;;;;;;;5097267;28;20443;-72
2023/03/17 07:15:36;;;;;;;7.93;4.10;;;;;;;;;;5096747;28;20549;-72
2023/03/17 07:18:05;;;;;;;6.40;3.47;;;;;;;;;;5097915;28;20447;-72
2023/03/17 07:20:35;;;;;;;4.83;3.30;;;;;;;;;;5097167;28;20448;-72
2023/03/17 07:23:06;;;;;;;11.53;4.30;;;;;;;;;;5094422;28;20484;-71
2023/03/17 07:25:35;;;;;;;6.53;3.90;;;;;;;;;;5087226;28;20490;-72
2023/03/17 07:28:08;;;;;;;6.37;3.77;;;;;;;;;;5078136;28;20447;-71
2023/03/17 07:30:37;;;;;;;8.03;3.77;;;;;;;;;;5096247;28;20475;-73
2023/03/17 07:33:12;;;;;;;5.83;3.00;;;;;;;;;;5096642;28;20482;-71
2023/03/17 07:35:40;;;;;;;5.97;4.00;;;;;;;;;;5098782;28;20535;-72
2023/03/17 07:38:08;;;;;;;7.17;4.13;;;;;;;;;;5098106;28;20493;-72
2023/03/17 07:40:37;;;;;;;5.77;4.00;;;;;;;;;;5098513;28;20858;-72
2023/03/17 07:43:05;;;;;;;7.67;3.77;;;;;;;;;;5096504;28;20452;-72
2023/03/17 07:45:34;;;;;;;6.77;3.57;;;;;;;;;;5098523;28;20478;-73
2023/03/17 07:48:05;;;;;;;6.30;3.33;;;;;;;;;;5098812;28;20456;-73
2023/03/17 07:50:34;;;;;;;6.23;3.87;;;;;;;;;;5096658;28;20465;-72
2023/03/17 07:53:07;;;;;;;5.87;3.37;;;;;;;;;;5097340;28;21030;-72
2023/03/17 07:55:41;;;;;;;7.40;4.07;;;;;;;;;;5097734;28;20887;-72
2023/03/17 07:58:09;;;;;;;8.00;3.33;;;;;;;;;;5076208;28;20467;-72
2023/03/17 08:00:36;;;;;;;5.67;4.00;;;;;;;;;;5087546;28;20526;-72
2023/03/17 08:03:09;;;;;;;7.07;3.80;;;;;;;;;;5096890;28;20447;-71
2023/03/17 08:05:36;;;;;;;5.73;3.43;;;;;;;;;;5096709;28;20800;-71
2023/03/17 08:08:11;;;;;;;7.87;4.70;;;;;;;;;;5090060;28;20851;-71
2023/03/17 08:10:39;;;;;;;5.57;3.10;;;;;;;;;;5084189;28;20532;-71
2023/03/17 08:13:10;;;;;;;6.30;3.13;;;;;;;;;;5096153;28;20708;-72
2023/03/17 08:15:41;;;;;;;7.57;3.83;;;;;;;;;;5087065;28;20569;-73
2023/03/17 08:18:10;;;;;;;9.20;4.30;;;;;;;;;;5096633;28;20528;-73
2023/03/17 08:20:41;;;;;;;6.73;4.13;;;;;;;;;;5097003;28;20455;-72
2023/03/17 08:23:19;;;;;;;16.27;4.50;;;;;;;;;;5082469;28;20448;-72
2023/03/17 08:25:48;;;;;;;4.43;2.83;;;;;;;;;;5078586;28;20567;-72
2023/03/17 08:28:16;;;;;;;8.67;4.30;;;;;;;;;;5094201;28;20483;-72
2023/03/17 08:30:49;;;;;;;8.13;3.90;;;;;;;;;;5095966;28;20456;-72
2023/03/17 08:33:19;;;;;;;9.93;4.73;;;;;;;;;;5097605;28;20505;-70
2023/03/17 08:35:47;;;;;;;4.80;3.70;;;;;;;;;;5096003;28;20462;-72
2023/03/17 08:38:17;;;;;;;6.97;3.90;;;;;;;;;;5098027;28;20875;-72
2023/03/17 08:40:57;;;;;;;4.50;3.07;;;;;;;;;;5096055;28;20451;-73
2023/03/17 08:43:25;;;;;;;6.73;4.30;;;;;;;;;;5083991;28;20461;-71
2023/03/17 08:45:56;;;;;;;5.73;3.70;;;;;;;;;;5092402;28;20515;-73
2023/03/17 08:48:36;;;;;;;5.17;3.53;;;;;;;;;;5107586;28;20486;-72
2023/03/17 08:51:07;;;;;;;7.70;4.60;;;;;;;;;;5095000;28;20515;-72
2023/03/17 08:53:36;;;;;;;5.27;3.23;;;;;;;;;;5075593;28;20453;-73
2023/03/17 08:56:05;;;;;;;7.77;4.10;;;;;;;;;;5090217;28;20472;-73
2023/03/17 08:58:35;;;;;;;6.47;3.53;;;;;;;;;;5084730;28;20459;-72
2023/03/17 09:01:09;;;;;;;5.33;3.40;;;;;;;;;;5093260;28;20455;-72
2023/03/17 09:03:39;;;;;;;5.27;3.50;;;;;;;;;;5093492;28;20550;-72
2023/03/17 09:06:08;;;;;;;6.90;3.97;;;;;;;;;;5107774;28;20451;-72
2023/03/17 09:08:43;;;;;;;5.93;3.53;;;;;;;;;;5093509;28;20459;-72
2023/03/17 09:11:23;;;;;;;8.40;4.30;;;;;;;;;;5097828;28;20478;-71
2023/03/17 09:13:51;;;;;;;5.67;3.50;;;;;;;;;;5090097;28;20459;-71
2023/03/17 09:16:19;;;;;;;9.23;3.80;;;;;;;;;;5096482;28;20463;-72
2023/03/17 09:18:51;;;;;;;6.53;3.70;;;;;;;;;;5097307;28;20475;-72
2023/03/17 09:21:37;;;;;;;7.90;3.73;;;;;;;;;;5095505;28;20448;-72
2023/03/17 09:24:09;;;;;;;7.17;2.90;;;;;;;;;;5093021;28;21047;-72
2023/03/17 09:26:38;;;;;;;11.90;4.50;;;;;;;;;;5077404;28;20455;-72
2023/03/17 09:29:06;;;;;;;8.07;4.17;;;;;;;;;;5076097;28;20444;-71
2023/03/17 09:31:34;;;;;;;6.13;3.50;;;;;;;;;;5075102;28;20476;-71
2023/03/17 09:34:09;;;;;;;5.70;3.10;;;;;;;;;;5083508;28;20467;-73
2023/03/17 09:36:37;;;;;;;9.20;3.77;;;;;;;;;;5075854;28;20455;-72
2023/03/17 09:39:11;;;;;;;7.33;4.00;;;;;;;;;;5078086;28;20483;-72
2023/03/17 09:41:58;;;;;;;6.90;3.40;;;;;;;;;;5078049;28;20448;-72
2023/03/17 09:44:37;;;;;;;5.40;3.23;;;;;;;;;;5076725;28;20448;-72
2023/03/17 09:47:10;;;;;;;8.20;3.80;;;;;;;;;;5075079;28;20819;-72
2023/03/17 09:49:56;;;;;;;11.80;3.60;;;;;;;;;;5088745;28;20456;-72
2023/03/17 09:52:33;;;;;;;7.80;3.10;;;;;;;;;;5097259;28;20487;-73
2023/03/17 09:55:12;;;;;;;6.77;3.83;;;;;;;;;;5096379;28;20522;-73
2023/03/17 09:57:54;;;;;;;8.80;3.73;;;;;;;;;;5081880;28;20822;-73
2023/03/17 10:00:29;;;;;;;6.37;3.80;;;;;;;;;;5078808;28;20576;-73
2023/03/17 10:02:58;;;;;;;12.40;5.77;;;;;;;;;;5095441;28;20448;-73
2023/03/17 10:05:45;;;;;;;6.77;3.50;;;;;;;;;;5089627;28;20529;-73
2023/03/17 10:08:35;;;;;;;13.20;3.67;;;;;;;;;;5097744;28;20825;-72
2023/03/17 10:11:19;;;;;;;6.50;3.23;;;;;;;;;;5097468;28;20567;-73
2023/03/17 10:13:56;;;;;;;7.70;3.63;;;;;;;;;;5096997;28;20515;-73
2023/03/17 10:16:28;;;;;;;7.93;2.70;;;;;;;;;;5095128;28;20484;-72
2023/03/17 10:19:19;;;;;;;8.00;2.90;;;;;;;;;;5096148;28;21049;-72
2023/03/17 10:21:54;;;;;;;8.57;3.10;;;;;;;;;;5095850;28;20788;-73
2023/03/17 10:24:24;;;;;;;7.50;3.33;;;;;;;;;;5094959;28;20459;-73
2023/03/17 10:26:58;;;;;;;7.10;3.03;;;;;;;;;;5094602;28;20501;-73
2023/03/17 10:29:30;;;;;;;7.40;3.60;;;;;;;;;;5095155;28;20478;-73
2023/03/17 10:32:00;;;;;;;7.90;3.20;;;;;;;;;;5093232;28;20475;-73
2023/03/17 10:34:29;;;;;;;11.63;3.00;;;;;;;;;;5090040;28;21031;-73
2023/03/17 10:37:01;;;;;;;6.53;2.60;;;;;;;;;;5089042;28;20464;-73
2023/03/17 10:39:35;;;;;;;8.33;3.23;;;;;;;;;;5099034;28;20479;-72
2023/03/17 10:42:10;;;;;;;8.60;3.00;;;;;;;;;;5099292;28;20451;-72
2023/03/17 10:44:49;;;;;;;5.77;2.60;;;;;;;;;;5098066;28;20465;-72
2023/03/17 10:47:21;;;;;;;4.80;2.53;;;;;;;;;;5097986;28;20847;-71
2023/03/17 10:49:52;;;;;;;6.60;2.57;;;;;;;;;;5098351;28;20477;-72
2023/03/17 10:52:29;;;;;;;7.07;3.03;;;;;;;;;;5097199;28;20810;-72
2023/03/17 10:55:01;;;;;;;6.60;3.13;;;;;;;;;;5094949;28;20470;-71
2023/03/17 10:57:38;;;;;;;11.40;3.57;;;;;;;;;;5089310;28;20959;-71
2023/03/17 11:00:13;;;;;;;6.70;3.03;;;;;;;;;;5093482;28;20459;-71
2023/03/17 11:02:54;;;;;;;7.47;3.40;;;;;;;;;;5096470;28;20447;-71
2023/03/17 11:05:28;;;;;;;6.60;3.33;;;;;;;;;;5092404;28;20797;-70
2023/03/17 11:08:12;;;;;;;6.00;2.90;;;;;;;;;;5092730;28;20458;-72
2023/03/17 11:13:31;;;;;;;9.47;3.30;;;;;;;;;;5089618;28;20475;-70
2023/03/17 11:16:09;;;;;;;7.17;3.10;;;;;;;;;;5089040;28;20472;-72
2023/03/17 11:18:42;;;;;;;6.90;3.10;;;;;;;;;;5077853;28;20743;-72
2023/03/17 11:21:12;;;;;;;5.83;2.70;;;;;;;;;;5099184;28;20456;-72
2023/03/17 11:23:51;;;;;;;7.93;3.37;;;;;;;;;;5098407;28;20452;-71
2023/03/17 11:26:29;;;;;;;6.60;2.70;;;;;;;;;;5097220;28;20447;-71
2023/03/17 11:29:07;;;;;;;10.07;3.47;;;;;;;;;;5098611;28;21014;-71
2023/03/17 11:31:42;;;;;;;4.97;2.53;;;;;;;;;;5097592;28;20455;-73
2023/03/17 11:34:15;;;;;;;9.30;3.83;;;;;;;;;;5086059;28;20815;-73
2023/03/17 11:36:50;;;;;;;8.03;2.90;;;;;;;;;;5101490;28;20557;-73
2023/03/17 11:39:23;;;;;;;7.10;2.87;;;;;;;;;;5111252;28;20554;-72
2023/03/17 11:42:01;;;;;;;6.10;2.13;;;;;;;;;;5086033;28;20720;-73
2023/03/17 11:45:00;;;;;;;5.17;2.30;;;;;;;;;;5077322;28;20488;-73
2023/03/17 11:47:36;;;;;;;5.67;2.77;;;;;;;;;;5011060;28;20467;-72
2023/03/17 11:50:09;;;;;;;6.20;2.67;;;;;;;;;;5081322;28;20524;-73
2023/03/17 11:52:52;;;;;;;6.13;2.20;;;;;;;;;;5097489;28;20480;-73
2023/03/17 11:55:31;;;;;;;4.63;2.57;;;;;;;;;;5096845;28;20515;-74
2023/03/17 11:58:01;;;;;;;7.27;3.30;;;;;;;;;;5096030;28;20958;-73
2023/03/17 12:00:34;;;;;;;4.83;2.37;;;;;;;;;;5093904;28;20476;-73
2023/03/17 12:03:11;;;;;;;4.80;2.87;;;;;;;;;;5091686;28;20490;-72
2023/03/17 12:05:44;;;;;;;8.00;2.73;;;;;;;;;;5096764;28;20566;-72
2023/03/17 12:08:15;;;;;;;4.23;2.40;;;;;;;;;;5091341;28;20479;-73
2023/03/17 12:10:48;;;;;;;5.20;2.77;;;;;;;;;;5085628;28;20443;-72
2023/03/17 12:13:23;;;;;;;11.43;3.10;;;;;;;;;;5079032;28;20499;-72
2023/03/17 12:15:55;;;;;;;6.10;3.00;;;;;;;;;;5093041;28;20451;-72
2023/03/17 12:18:26;;;;;;;6.93;3.00;;;;;;;;;;5090442;28;20530;-71
2023/03/17 12:21:04;;;;;;;8.47;3.00;;;;;;;;;;5088508;28;20486;-72
2023/03/17 12:24:13;;;;;;;9.07;4.47;;;;;;;;;;5086024;28;20524;-73
2023/03/17 12:27:12;;;;;;;7.50;3.70;;;;;;;;;;5092800;28;20516;-74
2023/03/17 12:29:46;;;;;;;5.07;2.77;;;;;;;;;;5087190;28;21024;-73
2023/03/17 12:32:19;;;;;;;5.60;3.10;;;;;;;;;;5085313;28;20598;-72
2023/03/17 12:34:51;;;;;;;3.23;1.70;;;;;;;;;;5086151;28;20869;-73
2023/03/17 12:38:08;;;;;;;3.63;1.70;;;;;;;;;;5085814;28;20459;-73
2023/03/17 12:43:37;;;;;;;3.83;2.33;;;;;;;;;;5022583;28;20520;-72
2023/03/17 12:49:27;;;;;;;5.77;2.40;;;;;;;;;;5008508;28;20464;-72
2023/03/17 12:52:09;;;;;;;4.43;2.10;;;;;;;;;;5015454;28;20466;-72
2023/03/17 12:57:52;;;;;;;3.80;2.07;;;;;;;;;;5013390;28;20450;-74
2023/03/17 13:07:08;;;;;;;3.10;1.77;;;;;;;;;;5024987;28;20850;-73
2023/03/17 13:13:07;;;;;;;4.93;2.10;;;;;;;;;;5012936;28;20523;-72
2023/03/17 13:18:52;;;;;;;3.83;2.30;;;;;;;;;;5011857;28;20828;-73
2023/03/17 13:21:42;;;;;;;7.10;3.23;;;;;;;;;;5007321;28;20964;-72
2023/03/17 13:24:38;;;;;;;7.83;3.83;;;;;;;;;;5003807;28;20468;-72
2023/03/17 13:27:15;;;;;;;10.03;5.70;;;;;;;;;;4991449;28;20460;-73
2023/03/17 13:29:47;;;;;;;6.80;4.60;;;;;;;;;;5015853;28;20508;-73
2023/03/17 13:32:37;;;;;;;4.90;2.60;;;;;;;;;;5011919;28;20471;-72
2023/03/17 13:35:28;;;;;;;3.70;2.23;;;;;;;;;;5008139;28;20454;-72
2023/03/17 13:38:22;;;;;;;5.43;2.60;;;;;;;;;;5007728;28;20506;-71
2023/03/17 13:41:02;;;;;;;7.30;2.90;;;;;;;;;;5019815;28;20456;-73
2023/03/17 13:43:38;;;;;;;5.63;1.47;;;;;;;;;;5028469;28;20463;-73
2023/03/17 13:46:24;;;;;;;6.20;2.83;;;;;;;;;;5010768;28;20858;-71
2023/03/17 13:51:53;;;;;;;5.80;2.10;;;;;;;;;;5009413;28;20447;-72
2023/03/17 13:54:34;;;;;;;7.83;3.57;;;;;;;;;;5007321;28;20883;-71
2023/03/17 13:57:16;;;;;;;3.43;1.90;;;;;;;;;;5011427;28;20451;-71
2023/03/17 14:00:01;;;;;;;5.60;2.63;;;;;;;;;;5012064;28;20456;-74
2023/03/17 14:03:00;;;;;;;5.10;2.50;;;;;;;;;;5009162;28;20458;-72
2023/03/17 14:05:41;;;;;;;5.17;2.60;;;;;;;;;;5012593;28;20546;-72
2023/03/17 14:08:27;;;;;;;4.20;2.20;;;;;;;;;;5013487;28;20456;-73
2023/03/17 14:10:58;;;;;;;4.50;2.80;;;;;;;;;;5009895;28;20455;-73
2023/03/17 14:13:30;;;;;;;3.87;2.37;;;;;;;;;;5014698;28;20494;-72
2023/03/17 14:16:02;;;;;;;3.87;2.13;;;;;;;;;;5017043;28;20552;-73
2023/03/17 14:19:00;;;;;;;5.97;2.50;;;;;;;;;;5017006;28;20463;-72
2023/03/17 14:21:35;;;;;;;5.27;2.37;;;;;;;;;;5016959;28;20476;-71
2023/03/17 14:24:04;;;;;;;7.20;3.00;;;;;;;;;;5001334;28;20461;-72
2023/03/17 14:26:42;;;;;;;3.57;1.70;;;;;;;;;;5012844;28;20452;-72
2023/03/17 14:29:12;;;;;;;4.70;2.60;;;;;;;;;;5012077;28;20579;-72
2023/03/17 14:31:41;;;;;;;5.13;1.70;;;;;;;;;;5011837;28;20547;-71
2023/03/17 14:34:16;;;;;;;3.37;1.60;;;;;;;;;;5011586;28;20525;-71
2023/03/17 14:37:03;;;;;;;3.83;1.87;;;;;;;;;;5013387;28;20548;-72
2023/03/17 14:39:33;;;;;;;3.03;1.87;;;;;;;;;;5013690;28;20451;-72
2023/03/17 14:42:10;;;;;;;6.00;2.90;;;;;;;;;;5012161;28;20479;-72
2023/03/17 14:44:47;;;;;;;4.50;2.27;;;;;;;;;;5005982;28;20462;-73
2023/03/17 14:47:28;;;;;;;3.00;1.53;;;;;;;;;;5005094;28;20463;-71
2023/03/17 14:53:12;;;;;;;3.97;2.30;;;;;;;;;;5012056;28;20876;-72
2023/03/17 14:55:42;;;;;;;4.80;2.43;;;;;;;;;;5010924;28;20910;-72
2023/03/17 14:58:11;;;;;;;3.73;1.87;;;;;;;;;;5013230;28;20582;-71
2023/03/17 15:00:50;;;;;;;10.60;4.33;;;;;;;;;;5012523;28;21054;-73
2023/03/17 15:03:26;;;;;;;4.57;3.20;;;;;;;;;;5014465;28;20963;-72
2023/03/17 15:06:05;;;;;;;6.43;3.20;;;;;;;;;;5012306;28;20454;-71
2023/03/17 15:08:49;;;;;;;4.97;2.80;;;;;;;;;;5011725;28;20510;-73
2023/03/17 15:11:20;;;;;;;5.43;2.17;;;;;;;;;;5010688;28;20562;-72
2023/03/17 15:13:51;;;;;;;7.63;3.97;;;;;;;;;;5009466;28;20479;-71
2023/03/17 15:16:34;;;;;;;5.77;2.47;;;;;;;;;;5012717;28;20533;-71
2023/03/17 15:19:08;;;;;;;5.17;1.93;;;;;;;;;;5010427;28;20459;-71
2023/03/17 15:21:43;;;;;;;5.27;2.37;;;;;;;;;;5010885;28;20455;-71
2023/03/17 15:24:38;;;;;;;6.57;3.63;;;;;;;;;;5014123;28;20462;-72
2023/03/17 15:27:23;;;;;;;4.93;2.40;;;;;;;;;;5007023;28;20532;-72
2023/03/17 15:29:56;;;;;;;4.80;2.23;;;;;;;;;;5008426;28;20467;-73
2023/03/17 15:32:58;;;;;;;4.60;2.17;;;;;;;;;;5009834;28;20558;-72
2023/03/17 15:35:45;;;;;;;4.50;2.63;;;;;;;;;;5007099;28;20541;-72
2023/03/17 15:38:23;;;;;;;3.70;1.80;;;;;;;;;;5010323;28;20495;-72
2023/03/17 15:41:03;;;;;;;4.20;1.73;;;;;;;;;;5012976;28;20455;-70
2023/03/17 15:50:03;;;;;;;7.10;3.47;;;;;;;;;;5020347;28;20494;-74
2023/03/17 15:52:38;;;;;;;5.73;4.00;;;;;;;;;;5012908;28;20463;-72